sensor_id;sensor_type;location;lat;lon;timestamp;temperature;humidity
7846;DHT22;3968;51.424;6.788;2024-02-26T00:01:41;7.70;99.90
7846;DHT22;3968;51.424;6.788;2024-02-26T00:04:09;7.70;99.90
7846;DHT22;3968;51.424;6.788;2024-02-26T00:06:34;7.70;99.90
7846;DHT22;3968;51.424;6.788;2024-02-26T00:09:00;7.60;99.90
7846;DHT22;3968;51.424;6.788;2024-02-26T00:11:27;7.60;99.90
7846;DHT22;3968;51.424;6.788;2024-02-26T00:13:53;7.60;99.90
7846;DHT22;3968;51.424;6.788;2024-02-26T00:16:19;7.60;99.90
7846;DHT22;3968;51.424;6.788;2024-02-26T00:18:44;7.60;99.90
7846;DHT22;3968;51.424;6.788;2024-02-26T00:21:10;7.60;99.90
7846;DHT22;3968;51.424;6.788;2024-02-26T00:23:35;7.60;99.90
7846;DHT22;3968;51.424;6.788;2024-02-26T00:26:01;7.60;99.90
7846;DHT22;3968;51.424;6.788;2024-02-26T00:28:27;7.60;99.90
7846;DHT22;3968;51.424;6.788;2024-02-26T00:30:54;7.50;99.90
7846;DHT22;3968;51.424;6.788;2024-02-26T00:33:21;7.60;99.90
7846;DHT22;3968;51.424;6.788;2024-02-26T00:35:47;7.60;99.90
7846;DHT22;3968;51.424;6.788;2024-02-26T00:38:13;7.60;99.90
7846;DHT22;3968;51.424;6.788;2024-02-26T00:40:39;7.60;99.90
7846;DHT22;3968;51.424;6.788;2024-02-26T00:43:06;7.60;99.90
7846;DHT22;3968;51.424;6.788;2024-02-26T00:45:32;7.60;99.90
7846;DHT22;3968;51.424;6.788;2024-02-26T00:47:58;7.60;99.90
7846;DHT22;3968;51.424;6.788;2024-02-26T00:50:24;7.60;99.90
7846;DHT22;3968;51.424;6.788;2024-02-26T00:52:49;7.60;99.90
7846;DHT22;3968;51.424;6.788;2024-02-26T00:55:15;7.60;99.90
7846;DHT22;3968;51.424;6.788;2024-02-26T00:57:40;7.60;99.90
7846;DHT22;3968;51.424;6.788;2024-02-26T01:00:07;7.60;99.90
7846;DHT22;3968;51.424;6.788;2024-02-26T01:02:34;7.60;99.90
7846;DHT22;3968;51.424;6.788;2024-02-26T01:05:00;7.70;99.90
7846;DHT22;3968;51.424;6.788;2024-02-26T01:07:25;7.60;99.90
7846;DHT22;3968;51.424;6.788;2024-02-26T01:09:51;7.60;99.90
7846;DHT22;3968;51.424;6.788;2024-02-26T01:12:16;7.60;99.90
7846;DHT22;3968;51.424;6.788;2024-02-26T01:14:42;7.60;99.90
7846;DHT22;3968;51.424;6.788;2024-02-26T01:17:07;7.60;99.90
7846;DHT22;3968;51.424;6.788;2024-02-26T01:19:33;7.60;99.90
7846;DHT22;3968;51.424;6.788;2024-02-26T01:21:58;7.50;99.90
7846;DHT22;3968;51.424;6.788;2024-02-26T01:24:24;7.50;99.90
7846;DHT22;3968;51.424;6.788;2024-02-26T01:26:49;7.60;99.90
7846;DHT22;3968;51.424;6.788;2024-02-26T01:29:15;7.50;99.90
7846;DHT22;3968;51.424;6.788;2024-02-26T01:31:41;7.50;99.90
7846;DHT22;3968;51.424;6.788;2024-02-26T01:34:06;7.50;99.90
7846;DHT22;3968;51.424;6.788;2024-02-26T01:36:32;7.50;99.90
7846;DHT22;3968;51.424;6.788;2024-02-26T01:38:57;7.50;99.90
7846;DHT22;3968;51.424;6.788;2024-02-26T01:41:23;7.50;99.90
7846;DHT22;3968;51.424;6.788;2024-02-26T01:43:49;7.60;99.90
7846;DHT22;3968;51.424;6.788;2024-02-26T01:46:14;7.60;99.90
7846;DHT22;3968;51.424;6.788;2024-02-26T01:48:45;7.60;99.90
7846;DHT22;3968;51.424;6.788;2024-02-26T01:51:14;7.60;99.90
7846;DHT22;3968;51.424;6.788;2024-02-26T01:53:41;7.60;99.90
7846;DHT22;3968;51.424;6.788;2024-02-26T01:56:07;7.60;99.90
7846;DHT22;3968;51.424;6.788;2024-02-26T01:58:34;7.60;99.90
7846;DHT22;3968;51.424;6.788;2024-02-26T02:01:01;7.60;99.90
7846;DHT22;3968;51.424;6.788;2024-02-26T02:03:28;7.60;99.90
7846;DHT22;3968;51.424;6.788;2024-02-26T02:05:55;7.60;99.90
7846;DHT22;3968;51.424;6.788;2024-02-26T02:08:21;7.60;99.90
7846;DHT22;3968;51.424;6.788;2024-02-26T02:10:49;7.60;99.90
7846;DHT22;3968;51.424;6.788;2024-02-26T02:13:14;7.60;99.90
7846;DHT22;3968;51.424;6.788;2024-02-26T02:15:40;7.70;99.90
7846;DHT22;3968;51.424;6.788;2024-02-26T02:18:06;7.60;99.90
7846;DHT22;3968;51.424;6.788;2024-02-26T02:20:35;7.60;99.90
7846;DHT22;3968;51.424;6.788;2024-02-26T02:23:01;7.70;99.90
7846;DHT22;3968;51.424;6.788;2024-02-26T02:25:27;7.70;99.90
7846;DHT22;3968;51.424;6.788;2024-02-26T02:27:56;7.70;99.90
7846;DHT22;3968;51.424;6.788;2024-02-26T02:30:26;7.70;99.90
7846;DHT22;3968;51.424;6.788;2024-02-26T02:32:53;7.70;99.90
7846;DHT22;3968;51.424;6.788;2024-02-26T02:35:19;7.70;99.90
7846;DHT22;3968;51.424;6.788;2024-02-26T02:37:44;7.80;99.90
7846;DHT22;3968;51.424;6.788;2024-02-26T02:40:10;7.80;99.90
7846;DHT22;3968;51.424;6.788;2024-02-26T02:42:36;7.80;99.90
7846;DHT22;3968;51.424;6.788;2024-02-26T02:45:01;7.80;99.90
7846;DHT22;3968;51.424;6.788;2024-02-26T02:47:27;7.70;99.90
7846;DHT22;3968;51.424;6.788;2024-02-26T02:49:52;7.70;99.90
7846;DHT22;3968;51.424;6.788;2024-02-26T02:52:18;7.70;99.90
7846;DHT22;3968;51.424;6.788;2024-02-26T02:54:44;7.70;99.90
7846;DHT22;3968;51.424;6.788;2024-02-26T02:57:09;7.60;99.90
7846;DHT22;3968;51.424;6.788;2024-02-26T02:59:36;7.60;99.90
7846;DHT22;3968;51.424;6.788;2024-02-26T03:02:02;7.60;99.90
7846;DHT22;3968;51.424;6.788;2024-02-26T03:04:27;7.60;99.90
7846;DHT22;3968;51.424;6.788;2024-02-26T03:06:54;7.60;99.90
7846;DHT22;3968;51.424;6.788;2024-02-26T03:09:20;7.60;99.90
7846;DHT22;3968;51.424;6.788;2024-02-26T03:11:46;7.60;99.90
7846;DHT22;3968;51.424;6.788;2024-02-26T03:14:11;7.50;99.90
7846;DHT22;3968;51.424;6.788;2024-02-26T03:16:37;7.50;99.90
7846;DHT22;3968;51.424;6.788;2024-02-26T03:19:03;7.50;99.90
7846;DHT22;3968;51.424;6.788;2024-02-26T03:21:28;7.50;99.90
7846;DHT22;3968;51.424;6.788;2024-02-26T03:23:54;7.50;99.90
7846;DHT22;3968;51.424;6.788;2024-02-26T03:26:20;7.50;99.90
7846;DHT22;3968;51.424;6.788;2024-02-26T03:28:47;7.50;99.90
7846;DHT22;3968;51.424;6.788;2024-02-26T03:31:12;7.40;99.90
7846;DHT22;3968;51.424;6.788;2024-02-26T03:33:38;7.40;99.90
7846;DHT22;3968;51.424;6.788;2024-02-26T03:36:04;7.40;99.90
7846;DHT22;3968;51.424;6.788;2024-02-26T03:38:30;7.30;99.90
7846;DHT22;3968;51.424;6.788;2024-02-26T03:40:56;7.30;99.90
7846;DHT22;3968;51.424;6.788;2024-02-26T03:43:21;7.30;99.90
7846;DHT22;3968;51.424;6.788;2024-02-26T03:45:47;7.30;99.90
7846;DHT22;3968;51.424;6.788;2024-02-26T03:48:13;7.20;99.90
7846;DHT22;3968;51.424;6.788;2024-02-26T03:50:38;7.20;99.90
7846;DHT22;3968;51.424;6.788;2024-02-26T03:53:04;7.20;99.90
7846;DHT22;3968;51.424;6.788;2024-02-26T03:55:30;7.20;99.90
7846;DHT22;3968;51.424;6.788;2024-02-26T03:57:55;7.10;99.90
7846;DHT22;3968;51.424;6.788;2024-02-26T04:00:21;7.10;99.90
7846;DHT22;3968;51.424;6.788;2024-02-26T04:02:47;7.10;99.90
7846;DHT22;3968;51.424;6.788;2024-02-26T04:05:13;7.10;99.90
7846;DHT22;3968;51.424;6.788;2024-02-26T04:07:39;7.00;99.90
7846;DHT22;3968;51.424;6.788;2024-02-26T04:10:09;7.00;99.90
7846;DHT22;3968;51.424;6.788;2024-02-26T04:12:35;7.00;99.90
7846;DHT22;3968;51.424;6.788;2024-02-26T04:15:00;6.90;99.90
7846;DHT22;3968;51.424;6.788;2024-02-26T04:17:26;6.90;99.90
7846;DHT22;3968;51.424;6.788;2024-02-26T04:19:51;6.90;99.90
7846;DHT22;3968;51.424;6.788;2024-02-26T04:22:17;6.90;99.90
7846;DHT22;3968;51.424;6.788;2024-02-26T04:24:43;6.90;99.90
7846;DHT22;3968;51.424;6.788;2024-02-26T04:27:08;6.80;99.90
7846;DHT22;3968;51.424;6.788;2024-02-26T04:29:34;6.80;99.90
7846;DHT22;3968;51.424;6.788;2024-02-26T04:31:59;6.80;99.90
7846;DHT22;3968;51.424;6.788;2024-02-26T04:34:25;6.80;99.90
7846;DHT22;3968;51.424;6.788;2024-02-26T04:36:50;6.80;99.90
7846;DHT22;3968;51.424;6.788;2024-02-26T04:39:16;6.80;99.90
7846;DHT22;3968;51.424;6.788;2024-02-26T04:41:42;6.80;99.90
7846;DHT22;3968;51.424;6.788;2024-02-26T04:44:07;6.70;99.90
7846;DHT22;3968;51.424;6.788;2024-02-26T04:46:33;6.70;99.90
7846;DHT22;3968;51.424;6.788;2024-02-26T04:48:58;6.70;99.90
7846;DHT22;3968;51.424;6.788;2024-02-26T04:51:24;6.70;99.90
7846;DHT22;3968;51.424;6.788;2024-02-26T04:53:49;6.70;99.90
7846;DHT22;3968;51.424;6.788;2024-02-26T04:56:15;6.70;99.90
7846;DHT22;3968;51.424;6.788;2024-02-26T04:58:40;6.70;99.90
7846;DHT22;3968;51.424;6.788;2024-02-26T05:01:06;6.70;99.90
7846;DHT22;3968;51.424;6.788;2024-02-26T05:03:32;6.70;99.90
7846;DHT22;3968;51.424;6.788;2024-02-26T05:05:57;6.70;99.90
7846;DHT22;3968;51.424;6.788;2024-02-26T05:08:23;6.70;99.90
7846;DHT22;3968;51.424;6.788;2024-02-26T05:10:49;6.70;99.90
7846;DHT22;3968;51.424;6.788;2024-02-26T05:13:15;6.70;99.90
7846;DHT22;3968;51.424;6.788;2024-02-26T05:15:43;6.70;99.90
7846;DHT22;3968;51.424;6.788;2024-02-26T05:18:09;6.70;99.90
7846;DHT22;3968;51.424;6.788;2024-02-26T05:20:34;6.70;99.90
7846;DHT22;3968;51.424;6.788;2024-02-26T05:23:01;6.70;99.90
7846;DHT22;3968;51.424;6.788;2024-02-26T05:25:27;6.60;99.90
7846;DHT22;3968;51.424;6.788;2024-02-26T05:27:52;6.60;99.90
7846;DHT22;3968;51.424;6.788;2024-02-26T05:30:18;6.60;99.90
7846;DHT22;3968;51.424;6.788;2024-02-26T05:32:44;6.60;99.90
7846;DHT22;3968;51.424;6.788;2024-02-26T05:35:09;6.60;99.90
7846;DHT22;3968;51.424;6.788;2024-02-26T05:37:35;6.60;99.90
7846;DHT22;3968;51.424;6.788;2024-02-26T05:40:00;6.50;99.90
7846;DHT22;3968;51.424;6.788;2024-02-26T05:42:26;6.50;99.90
7846;DHT22;3968;51.424;6.788;2024-02-26T05:44:52;6.50;99.90
7846;DHT22;3968;51.424;6.788;2024-02-26T05:47:17;6.50;99.90
7846;DHT22;3968;51.424;6.788;2024-02-26T05:49:43;6.50;99.90
7846;DHT22;3968;51.424;6.788;2024-02-26T05:52:09;6.50;99.90
7846;DHT22;3968;51.424;6.788;2024-02-26T05:54:34;6.50;99.90
7846;DHT22;3968;51.424;6.788;2024-02-26T05:57:00;6.40;99.90
7846;DHT22;3968;51.424;6.788;2024-02-26T05:59:26;6.40;99.90
7846;DHT22;3968;51.424;6.788;2024-02-26T06:01:52;6.40;99.90
7846;DHT22;3968;51.424;6.788;2024-02-26T06:04:17;6.40;99.90
7846;DHT22;3968;51.424;6.788;2024-02-26T06:06:44;6.40;99.90
7846;DHT22;3968;51.424;6.788;2024-02-26T06:09:11;6.40;99.90
7846;DHT22;3968;51.424;6.788;2024-02-26T06:11:37;6.40;99.90
7846;DHT22;3968;51.424;6.788;2024-02-26T06:14:02;6.30;99.90
7846;DHT22;3968;51.424;6.788;2024-02-26T06:16:28;6.30;99.90
7846;DHT22;3968;51.424;6.788;2024-02-26T06:18:54;6.30;99.90
7846;DHT22;3968;51.424;6.788;2024-02-26T06:21:19;6.30;99.90
7846;DHT22;3968;51.424;6.788;2024-02-26T06:23:45;6.30;99.90
7846;DHT22;3968;51.424;6.788;2024-02-26T06:26:10;6.30;99.90
7846;DHT22;3968;51.424;6.788;2024-02-26T06:28:36;6.30;99.90
7846;DHT22;3968;51.424;6.788;2024-02-26T06:31:02;6.30;99.90
7846;DHT22;3968;51.424;6.788;2024-02-26T06:33:28;6.30;99.90
7846;DHT22;3968;51.424;6.788;2024-02-26T06:35:53;6.30;99.90
7846;DHT22;3968;51.424;6.788;2024-02-26T06:38:19;6.30;99.90
7846;DHT22;3968;51.424;6.788;2024-02-26T06:40:45;6.30;99.90
7846;DHT22;3968;51.424;6.788;2024-02-26T06:43:11;6.30;99.90
7846;DHT22;3968;51.424;6.788;2024-02-26T06:45:36;6.30;99.90
7846;DHT22;3968;51.424;6.788;2024-02-26T06:48:02;6.30;99.90
7846;DHT22;3968;51.424;6.788;2024-02-26T06:50:28;6.30;99.90
7846;DHT22;3968;51.424;6.788;2024-02-26T06:52:53;6.30;99.90
7846;DHT22;3968;51.424;6.788;2024-02-26T06:55:19;6.30;99.90
7846;DHT22;3968;51.424;6.788;2024-02-26T06:57:44;6.30;99.90
7846;DHT22;3968;51.424;6.788;2024-02-26T07:00:10;6.40;99.90
7846;DHT22;3968;51.424;6.788;2024-02-26T07:02:40;6.40;99.90
7846;DHT22;3968;51.424;6.788;2024-02-26T07:05:06;6.40;99.90
7846;DHT22;3968;51.424;6.788;2024-02-26T07:07:32;6.40;99.90
7846;DHT22;3968;51.424;6.788;2024-02-26T07:09:57;6.40;99.90
7846;DHT22;3968;51.424;6.788;2024-02-26T07:12:23;6.40;99.90
7846;DHT22;3968;51.424;6.788;2024-02-26T07:14:49;6.50;99.90
7846;DHT22;3968;51.424;6.788;2024-02-26T07:17:15;6.50;99.90
7846;DHT22;3968;51.424;6.788;2024-02-26T07:19:42;6.50;99.90
7846;DHT22;3968;51.424;6.788;2024-02-26T07:22:08;6.50;99.90
7846;DHT22;3968;51.424;6.788;2024-02-26T07:24:33;6.50;99.90
7846;DHT22;3968;51.424;6.788;2024-02-26T07:26:59;6.50;99.90
7846;DHT22;3968;51.424;6.788;2024-02-26T07:29:25;6.50;99.90
7846;DHT22;3968;51.424;6.788;2024-02-26T07:31:50;6.50;99.90
7846;DHT22;3968;51.424;6.788;2024-02-26T07:34:16;6.50;99.90
7846;DHT22;3968;51.424;6.788;2024-02-26T07:36:42;6.60;99.90
7846;DHT22;3968;51.424;6.788;2024-02-26T07:39:08;6.60;99.90
7846;DHT22;3968;51.424;6.788;2024-02-26T07:41:33;6.60;99.90
7846;DHT22;3968;51.424;6.788;2024-02-26T07:43:59;6.60;99.90
7846;DHT22;3968;51.424;6.788;2024-02-26T07:46:25;6.60;99.90
7846;DHT22;3968;51.424;6.788;2024-02-26T07:48:50;6.60;99.90
7846;DHT22;3968;51.424;6.788;2024-02-26T07:51:16;6.60;99.90
7846;DHT22;3968;51.424;6.788;2024-02-26T07:53:42;6.50;99.90
7846;DHT22;3968;51.424;6.788;2024-02-26T07:56:09;6.50;99.90
7846;DHT22;3968;51.424;6.788;2024-02-26T07:58:35;6.60;99.90
7846;DHT22;3968;51.424;6.788;2024-02-26T08:01:01;6.50;99.90
7846;DHT22;3968;51.424;6.788;2024-02-26T08:03:26;6.60;99.90
7846;DHT22;3968;51.424;6.788;2024-02-26T08:05:52;6.50;99.90
7846;DHT22;3968;51.424;6.788;2024-02-26T08:08:18;6.60;99.90
7846;DHT22;3968;51.424;6.788;2024-02-26T08:10:43;6.60;99.90
7846;DHT22;3968;51.424;6.788;2024-02-26T08:13:09;6.50;99.90
7846;DHT22;3968;51.424;6.788;2024-02-26T08:15:35;6.50;99.90
7846;DHT22;3968;51.424;6.788;2024-02-26T08:18:03;6.50;99.90
7846;DHT22;3968;51.424;6.788;2024-02-26T08:20:29;6.50;99.90
7846;DHT22;3968;51.424;6.788;2024-02-26T08:22:56;6.60;99.90
7846;DHT22;3968;51.424;6.788;2024-02-26T08:25:22;6.50;99.90
7846;DHT22;3968;51.424;6.788;2024-02-26T08:27:47;6.60;99.90
7846;DHT22;3968;51.424;6.788;2024-02-26T08:30:14;6.60;99.90
7846;DHT22;3968;51.424;6.788;2024-02-26T08:32:48;6.60;99.90
7846;DHT22;3968;51.424;6.788;2024-02-26T08:35:13;6.60;99.90
7846;DHT22;3968;51.424;6.788;2024-02-26T08:37:39;6.60;99.90
7846;DHT22;3968;51.424;6.788;2024-02-26T08:40:06;6.60;99.90
7846;DHT22;3968;51.424;6.788;2024-02-26T08:42:32;6.60;99.90
7846;DHT22;3968;51.424;6.788;2024-02-26T08:44:57;6.70;99.90
7846;DHT22;3968;51.424;6.788;2024-02-26T08:47:25;6.70;99.90
7846;DHT22;3968;51.424;6.788;2024-02-26T08:49:51;6.70;99.90
7846;DHT22;3968;51.424;6.788;2024-02-26T08:52:17;6.70;99.90
7846;DHT22;3968;51.424;6.788;2024-02-26T08:54:42;6.70;99.90
7846;DHT22;3968;51.424;6.788;2024-02-26T08:57:08;6.70;99.90
7846;DHT22;3968;51.424;6.788;2024-02-26T08:59:33;6.70;99.90
7846;DHT22;3968;51.424;6.788;2024-02-26T09:01:59;6.70;99.90
7846;DHT22;3968;51.424;6.788;2024-02-26T09:04:25;6.80;99.90
7846;DHT22;3968;51.424;6.788;2024-02-26T09:06:52;6.80;99.90
7846;DHT22;3968;51.424;6.788;2024-02-26T09:09:17;6.80;99.90
7846;DHT22;3968;51.424;6.788;2024-02-26T09:11:43;6.80;99.90
7846;DHT22;3968;51.424;6.788;2024-02-26T09:14:08;6.80;99.90
7846;DHT22;3968;51.424;6.788;2024-02-26T09:16:34;6.80;99.90
7846;DHT22;3968;51.424;6.788;2024-02-26T09:19:00;6.80;99.90
7846;DHT22;3968;51.424;6.788;2024-02-26T09:21:25;6.80;99.90
7846;DHT22;3968;51.424;6.788;2024-02-26T09:23:52;6.90;99.90
7846;DHT22;3968;51.424;6.788;2024-02-26T09:26:17;6.80;99.90
7846;DHT22;3968;51.424;6.788;2024-02-26T09:28:44;6.90;99.90
7846;DHT22;3968;51.424;6.788;2024-02-26T09:31:09;6.90;99.90
7846;DHT22;3968;51.424;6.788;2024-02-26T09:33:35;6.90;99.90
7846;DHT22;3968;51.424;6.788;2024-02-26T09:36:01;6.80;99.90
7846;DHT22;3968;51.424;6.788;2024-02-26T09:38:27;6.80;99.90
7846;DHT22;3968;51.424;6.788;2024-02-26T09:40:53;6.80;99.90
7846;DHT22;3968;51.424;6.788;2024-02-26T09:43:21;6.80;99.90
7846;DHT22;3968;51.424;6.788;2024-02-26T09:45:50;6.80;99.90
7846;DHT22;3968;51.424;6.788;2024-02-26T09:48:17;6.80;99.90
7846;DHT22;3968;51.424;6.788;2024-02-26T09:50:43;6.80;99.90
7846;DHT22;3968;51.424;6.788;2024-02-26T09:53:11;6.80;99.90
7846;DHT22;3968;51.424;6.788;2024-02-26T09:55:37;6.80;99.90
7846;DHT22;3968;51.424;6.788;2024-02-26T09:58:05;6.80;99.90
7846;DHT22;3968;51.424;6.788;2024-02-26T10:00:31;6.90;99.90
7846;DHT22;3968;51.424;6.788;2024-02-26T10:03:09;7.00;99.90
7846;DHT22;3968;51.424;6.788;2024-02-26T10:05:38;7.00;99.90
7846;DHT22;3968;51.424;6.788;2024-02-26T10:08:06;7.00;99.90
7846;DHT22;3968;51.424;6.788;2024-02-26T10:10:33;7.00;99.90
7846;DHT22;3968;51.424;6.788;2024-02-26T10:13:00;7.00;99.90
7846;DHT22;3968;51.424;6.788;2024-02-26T10:15:26;7.00;99.90
7846;DHT22;3968;51.424;6.788;2024-02-26T10:17:52;7.10;99.90
7846;DHT22;3968;51.424;6.788;2024-02-26T10:20:18;7.10;99.90
7846;DHT22;3968;51.424;6.788;2024-02-26T10:22:47;7.00;99.90
7846;DHT22;3968;51.424;6.788;2024-02-26T10:25:13;7.10;99.90
7846;DHT22;3968;51.424;6.788;2024-02-26T10:27:41;7.10;99.90
7846;DHT22;3968;51.424;6.788;2024-02-26T10:32:44;7.20;99.90
7846;DHT22;3968;51.424;6.788;2024-02-26T10:35:11;7.20;99.90
7846;DHT22;3968;51.424;6.788;2024-02-26T10:37:36;7.10;99.90
7846;DHT22;3968;51.424;6.788;2024-02-26T10:40:02;7.20;99.90
7846;DHT22;3968;51.424;6.788;2024-02-26T10:42:30;7.20;99.90
7846;DHT22;3968;51.424;6.788;2024-02-26T10:44:55;7.20;99.90
7846;DHT22;3968;51.424;6.788;2024-02-26T10:47:21;7.20;99.90
7846;DHT22;3968;51.424;6.788;2024-02-26T10:49:47;7.20;99.90
7846;DHT22;3968;51.424;6.788;2024-02-26T10:52:19;7.20;99.90
7846;DHT22;3968;51.424;6.788;2024-02-26T10:54:47;7.20;99.90
7846;DHT22;3968;51.424;6.788;2024-02-26T10:57:14;7.30;99.90
7846;DHT22;3968;51.424;6.788;2024-02-26T10:59:42;7.30;99.90
7846;DHT22;3968;51.424;6.788;2024-02-26T11:02:10;7.30;99.90
7846;DHT22;3968;51.424;6.788;2024-02-26T11:04:37;7.30;99.90
7846;DHT22;3968;51.424;6.788;2024-02-26T11:07:03;7.30;99.90
7846;DHT22;3968;51.424;6.788;2024-02-26T11:09:30;7.30;99.90
7846;DHT22;3968;51.424;6.788;2024-02-26T11:11:57;7.40;99.90
7846;DHT22;3968;51.424;6.788;2024-02-26T11:14:24;7.40;99.90
7846;DHT22;3968;51.424;6.788;2024-02-26T11:16:51;7.50;99.90
7846;DHT22;3968;51.424;6.788;2024-02-26T11:19:18;7.60;99.90
7846;DHT22;3968;51.424;6.788;2024-02-26T11:21:44;7.60;99.90
7846;DHT22;3968;51.424;6.788;2024-02-26T11:24:12;7.70;99.90
7846;DHT22;3968;51.424;6.788;2024-02-26T11:27:00;7.70;99.90
7846;DHT22;3968;51.424;6.788;2024-02-26T11:29:37;7.60;99.90
7846;DHT22;3968;51.424;6.788;2024-02-26T11:32:04;7.70;99.90
7846;DHT22;3968;51.424;6.788;2024-02-26T11:34:30;7.80;99.90
7846;DHT22;3968;51.424;6.788;2024-02-26T11:36:56;7.70;99.90
7846;DHT22;3968;51.424;6.788;2024-02-26T11:39:22;7.70;99.90
7846;DHT22;3968;51.424;6.788;2024-02-26T11:41:50;7.70;99.90
7846;DHT22;3968;51.424;6.788;2024-02-26T11:44:28;7.70;99.90
7846;DHT22;3968;51.424;6.788;2024-02-26T11:46:56;7.70;99.90
7846;DHT22;3968;51.424;6.788;2024-02-26T11:51:57;7.70;99.90
7846;DHT22;3968;51.424;6.788;2024-02-26T11:54:51;7.80;99.90
7846;DHT22;3968;51.424;6.788;2024-02-26T11:57:38;7.80;99.90
7846;DHT22;3968;51.424;6.788;2024-02-26T12:07:48;8.10;99.90
7846;DHT22;3968;51.424;6.788;2024-02-26T12:10:32;8.20;99.90
7846;DHT22;3968;51.424;6.788;2024-02-26T12:13:12;8.20;99.90
7846;DHT22;3968;51.424;6.788;2024-02-26T12:15:39;8.20;99.90
7846;DHT22;3968;51.424;6.788;2024-02-26T12:18:07;8.20;99.90
7846;DHT22;3968;51.424;6.788;2024-02-26T12:20:37;8.30;99.90
7846;DHT22;3968;51.424;6.788;2024-02-26T12:23:04;8.20;99.90
7846;DHT22;3968;51.424;6.788;2024-02-26T12:25:31;8.20;99.90
7846;DHT22;3968;51.424;6.788;2024-02-26T12:27:57;8.30;99.90
7846;DHT22;3968;51.424;6.788;2024-02-26T12:30:23;8.20;99.90
7846;DHT22;3968;51.424;6.788;2024-02-26T12:32:52;8.20;99.90
7846;DHT22;3968;51.424;6.788;2024-02-26T12:35:18;8.20;99.90
7846;DHT22;3968;51.424;6.788;2024-02-26T12:37:44;8.20;99.90
7846;DHT22;3968;51.424;6.788;2024-02-26T12:40:10;8.20;99.90
7846;DHT22;3968;51.424;6.788;2024-02-26T12:42:37;8.20;99.90
7846;DHT22;3968;51.424;6.788;2024-02-26T12:45:07;8.20;99.90
7846;DHT22;3968;51.424;6.788;2024-02-26T12:47:44;8.20;99.90
7846;DHT22;3968;51.424;6.788;2024-02-26T12:50:15;8.10;99.90
7846;DHT22;3968;51.424;6.788;2024-02-26T12:52:45;8.10;99.90
7846;DHT22;3968;51.424;6.788;2024-02-26T12:55:16;8.10;99.90
7846;DHT22;3968;51.424;6.788;2024-02-26T12:57:43;8.10;99.90
7846;DHT22;3968;51.424;6.788;2024-02-26T13:00:12;8.10;99.90
7846;DHT22;3968;51.424;6.788;2024-02-26T13:02:40;8.10;99.90
7846;DHT22;3968;51.424;6.788;2024-02-26T13:05:08;8.10;99.90
7846;DHT22;3968;51.424;6.788;2024-02-26T13:07:34;8.10;99.90
7846;DHT22;3968;51.424;6.788;2024-02-26T13:10:06;8.00;99.90
7846;DHT22;3968;51.424;6.788;2024-02-26T13:12:32;8.10;99.90
7846;DHT22;3968;51.424;6.788;2024-02-26T13:15:04;8.10;99.90
7846;DHT22;3968;51.424;6.788;2024-02-26T13:17:33;8.10;99.90
7846;DHT22;3968;51.424;6.788;2024-02-26T13:19:59;8.10;99.90
7846;DHT22;3968;51.424;6.788;2024-02-26T13:22:25;8.10;99.90
7846;DHT22;3968;51.424;6.788;2024-02-26T13:24:58;8.10;99.90
7846;DHT22;3968;51.424;6.788;2024-02-26T13:27:24;8.20;99.90
7846;DHT22;3968;51.424;6.788;2024-02-26T13:30:11;8.20;99.90
7846;DHT22;3968;51.424;6.788;2024-02-26T13:32:40;8.20;99.90
7846;DHT22;3968;51.424;6.788;2024-02-26T13:37:35;8.20;99.90
7846;DHT22;3968;51.424;6.788;2024-02-26T13:40:08;8.20;99.90
7846;DHT22;3968;51.424;6.788;2024-02-26T13:42:35;8.20;99.90
7846;DHT22;3968;51.424;6.788;2024-02-26T13:45:01;8.20;99.90
7846;DHT22;3968;51.424;6.788;2024-02-26T13:47:28;8.20;99.90
7846;DHT22;3968;51.424;6.788;2024-02-26T13:49:54;8.20;99.90
7846;DHT22;3968;51.424;6.788;2024-02-26T13:52:20;8.20;99.90
7846;DHT22;3968;51.424;6.788;2024-02-26T13:54:46;8.20;99.90
7846;DHT22;3968;51.424;6.788;2024-02-26T13:57:11;8.20;99.90
7846;DHT22;3968;51.424;6.788;2024-02-26T13:59:37;8.30;99.90
7846;DHT22;3968;51.424;6.788;2024-02-26T14:02:07;8.30;99.90
7846;DHT22;3968;51.424;6.788;2024-02-26T14:04:32;8.30;99.90
7846;DHT22;3968;51.424;6.788;2024-02-26T14:06:58;8.20;99.90
7846;DHT22;3968;51.424;6.788;2024-02-26T14:09:23;8.20;99.90
7846;DHT22;3968;51.424;6.788;2024-02-26T14:11:49;8.20;99.90
7846;DHT22;3968;51.424;6.788;2024-02-26T14:14:14;8.20;99.90
7846;DHT22;3968;51.424;6.788;2024-02-26T14:16:40;8.20;99.90
7846;DHT22;3968;51.424;6.788;2024-02-26T14:19:06;8.20;99.90
7846;DHT22;3968;51.424;6.788;2024-02-26T14:21:32;8.20;99.90
7846;DHT22;3968;51.424;6.788;2024-02-26T14:23:57;8.20;99.90
7846;DHT22;3968;51.424;6.788;2024-02-26T14:26:23;8.20;99.90
7846;DHT22;3968;51.424;6.788;2024-02-26T14:28:49;8.20;99.90
7846;DHT22;3968;51.424;6.788;2024-02-26T14:31:17;8.20;99.90
7846;DHT22;3968;51.424;6.788;2024-02-26T14:33:43;8.20;99.90
7846;DHT22;3968;51.424;6.788;2024-02-26T14:36:09;8.20;99.90
7846;DHT22;3968;51.424;6.788;2024-02-26T14:38:35;8.20;99.90
7846;DHT22;3968;51.424;6.788;2024-02-26T14:41:01;8.10;99.90
7846;DHT22;3968;51.424;6.788;2024-02-26T14:43:28;8.10;99.90
7846;DHT22;3968;51.424;6.788;2024-02-26T14:45:53;8.10;99.90
7846;DHT22;3968;51.424;6.788;2024-02-26T14:48:19;8.10;99.90
7846;DHT22;3968;51.424;6.788;2024-02-26T14:50:44;8.10;99.90
7846;DHT22;3968;51.424;6.788;2024-02-26T14:53:10;8.10;99.90
7846;DHT22;3968;51.424;6.788;2024-02-26T14:55:35;8.10;99.90
7846;DHT22;3968;51.424;6.788;2024-02-26T14:58:01;8.10;99.90
7846;DHT22;3968;51.424;6.788;2024-02-26T15:00:27;8.10;99.90
7846;DHT22;3968;51.424;6.788;2024-02-26T15:02:52;8.10;99.90
7846;DHT22;3968;51.424;6.788;2024-02-26T15:05:20;8.10;99.90
7846;DHT22;3968;51.424;6.788;2024-02-26T15:07:45;8.10;99.90
7846;DHT22;3968;51.424;6.788;2024-02-26T15:10:12;8.10;99.90
7846;DHT22;3968;51.424;6.788;2024-02-26T15:12:38;8.10;99.90
7846;DHT22;3968;51.424;6.788;2024-02-26T15:15:04;8.10;99.90
7846;DHT22;3968;51.424;6.788;2024-02-26T15:17:29;8.00;99.90
7846;DHT22;3968;51.424;6.788;2024-02-26T15:19:57;8.10;99.90
7846;DHT22;3968;51.424;6.788;2024-02-26T15:22:24;8.10;99.90
7846;DHT22;3968;51.424;6.788;2024-02-26T15:24:50;8.10;99.90
7846;DHT22;3968;51.424;6.788;2024-02-26T15:27:15;8.10;99.90
7846;DHT22;3968;51.424;6.788;2024-02-26T15:29:42;8.10;99.90
7846;DHT22;3968;51.424;6.788;2024-02-26T15:32:08;8.10;99.90
7846;DHT22;3968;51.424;6.788;2024-02-26T15:34:33;8.10;99.90
7846;DHT22;3968;51.424;6.788;2024-02-26T15:36:59;8.10;99.90
7846;DHT22;3968;51.424;6.788;2024-02-26T15:39:24;8.00;99.90
7846;DHT22;3968;51.424;6.788;2024-02-26T15:41:50;8.10;99.90
7846;DHT22;3968;51.424;6.788;2024-02-26T15:44:15;8.10;99.90
7846;DHT22;3968;51.424;6.788;2024-02-26T15:46:41;8.10;99.90
7846;DHT22;3968;51.424;6.788;2024-02-26T15:49:07;8.10;99.90
7846;DHT22;3968;51.424;6.788;2024-02-26T15:51:33;8.00;99.90
7846;DHT22;3968;51.424;6.788;2024-02-26T15:53:59;8.00;99.90
7846;DHT22;3968;51.424;6.788;2024-02-26T15:56:25;8.00;99.90
7846;DHT22;3968;51.424;6.788;2024-02-26T15:58:52;8.00;99.90
7846;DHT22;3968;51.424;6.788;2024-02-26T16:01:17;8.00;99.90
7846;DHT22;3968;51.424;6.788;2024-02-26T16:03:43;7.90;99.90
7846;DHT22;3968;51.424;6.788;2024-02-26T16:06:20;7.90;99.90
7846;DHT22;3968;51.424;6.788;2024-02-26T16:08:47;7.90;99.90
7846;DHT22;3968;51.424;6.788;2024-02-26T16:11:13;7.90;99.90
7846;DHT22;3968;51.424;6.788;2024-02-26T16:13:39;7.90;99.90
7846;DHT22;3968;51.424;6.788;2024-02-26T16:16:13;7.90;99.90
7846;DHT22;3968;51.424;6.788;2024-02-26T16:18:42;7.90;99.90
7846;DHT22;3968;51.424;6.788;2024-02-26T16:21:08;7.90;99.90
7846;DHT22;3968;51.424;6.788;2024-02-26T16:23:34;7.90;99.90
7846;DHT22;3968;51.424;6.788;2024-02-26T16:25:59;7.90;99.90
7846;DHT22;3968;51.424;6.788;2024-02-26T16:28:25;7.90;99.90